Time;durP1;ratioP1;P1;durP2;ratioP2;P2;SDS_P1;SDS_P2;PMS_P1;PMS_P2;Temp;Humidity;BMP_temperature;BMP_pressure;BME280_temperature;BME280_humidity;BME280_pressure;Samples;Min_cycle;Max_cycle;Signal;HPM_P1;HPM_P2
2023/10/31 00:01:51;;;;;;;4.72;1.13;;;19.40;99.90;;;;;;4923985;29;20020;-89
2023/10/31 00:04:17;;;;;;;12.98;1.40;;;19.50;99.90;;;;;;4915042;29;20399;-88
2023/10/31 00:06:43;;;;;;;2.78;1.00;;;19.40;99.90;;;;;;4918878;29;20099;-89
2023/10/31 00:09:10;;;;;;;1.98;0.70;;;19.40;99.90;;;;;;4925807;29;20103;-90
2023/10/31 00:11:36;;;;;;;2.05;0.60;;;19.40;99.90;;;;;;4931467;29;20016;-77
2023/10/31 00:14:02;;;;;;;2.40;0.60;;;19.40;99.90;;;;;;4922598;29;20111;-78
2023/10/31 00:16:28;;;;;;;10.57;1.50;;;19.30;99.90;;;;;;4918321;29;20103;-76
2023/10/31 00:18:53;;;;;;;2.85;0.80;;;19.40;99.90;;;;;;4925966;23;20500;-75
2023/10/31 00:21:19;;;;;;;4.15;1.90;;;19.40;99.90;;;;;;4916826;29;20020;-75
2023/10/31 00:23:47;;;;;;;4.13;1.00;;;19.30;99.90;;;;;;4923511;29;20040;-75
2023/10/31 00:26:12;;;;;;;5.00;1.08;;;19.30;99.90;;;;;;4919914;29;20111;-75
2023/10/31 00:28:38;;;;;;;7.63;1.60;;;19.30;99.90;;;;;;4912708;29;20452;-74
2023/10/31 00:31:05;;;;;;;7.22;1.35;;;19.30;99.90;;;;;;4911861;29;20020;-75
2023/10/31 00:33:30;;;;;;;5.78;1.40;;;19.30;99.90;;;;;;4909923;29;20114;-74
2023/10/31 00:35:56;;;;;;;3.85;1.13;;;19.30;99.90;;;;;;4925070;29;20112;-74
2023/10/31 00:38:22;;;;;;;5.70;1.35;;;19.30;99.90;;;;;;4919713;29;20067;-74
2023/10/31 00:40:47;;;;;;;9.00;2.33;;;19.30;99.90;;;;;;4917065;29;20039;-75
2023/10/31 00:43:13;;;;;;;2.97;1.02;;;19.30;99.90;;;;;;4934344;29;20038;-75
2023/10/31 00:45:38;;;;;;;4.38;0.98;;;19.40;99.90;;;;;;4921239;29;20182;-75
2023/10/31 00:48:04;;;;;;;5.32;1.88;;;19.30;99.90;;;;;;4934564;29;20063;-74
2023/10/31 00:50:30;;;;;;;3.10;1.17;;;19.40;99.90;;;;;;4921557;29;20032;-74
2023/10/31 00:52:56;;;;;;;5.43;1.05;;;19.40;99.90;;;;;;4920394;29;20673;-74
2023/10/31 00:55:22;;;;;;;5.15;1.17;;;19.40;99.90;;;;;;4922437;29;20090;-74
2023/10/31 00:57:47;;;;;;;4.60;0.85;;;19.40;99.90;;;;;;4924214;29;20036;-74
2023/10/31 01:00:13;;;;;;;9.60;1.20;;;19.40;99.90;;;;;;4916482;29;20083;-74
2023/10/31 01:02:39;;;;;;;11.55;1.23;;;19.40;99.90;;;;;;4915645;29;20040;-74
2023/10/31 01:05:05;;;;;;;3.63;0.90;;;19.40;99.90;;;;;;4924767;29;20047;-74
2023/10/31 01:07:31;;;;;;;3.72;0.90;;;19.30;99.90;;;;;;4932374;29;20035;-74
2023/10/31 01:09:56;;;;;;;3.70;0.90;;;19.30;99.90;;;;;;4926374;29;20092;-74
2023/10/31 01:12:22;;;;;;;2.63;0.70;;;19.30;99.90;;;;;;4922898;29;20484;-74
2023/10/31 01:14:48;;;;;;;5.80;1.30;;;19.30;99.90;;;;;;4933029;29;20356;-74
2023/10/31 01:17:14;;;;;;;3.90;0.90;;;19.30;99.90;;;;;;4933888;29;20475;-74
2023/10/31 01:19:39;;;;;;;5.78;1.23;;;19.30;99.90;;;;;;4924738;29;20051;-74
2023/10/31 01:22:07;;;;;;;4.88;1.38;;;19.20;99.90;;;;;;4920992;29;20529;-74
2023/10/31 01:24:32;;;;;;;6.28;1.33;;;19.20;99.90;;;;;;4930451;29;20465;-74
2023/10/31 01:26:58;;;;;;;2.70;0.68;;;19.20;99.90;;;;;;4925745;29;20046;-74
2023/10/31 01:29:24;;;;;;;7.22;1.25;;;19.20;99.90;;;;;;4925625;29;20028;-74
2023/10/31 01:31:49;;;;;;;9.88;1.38;;;19.20;99.90;;;;;;4925282;29;20796;-74
2023/10/31 01:34:15;;;;;;;7.05;1.23;;;19.10;99.90;;;;;;4931283;29;20381;-73
2023/10/31 01:36:41;;;;;;;8.18;1.33;;;19.20;99.90;;;;;;4906767;29;20476;-73
2023/10/31 01:39:07;;;;;;;3.92;0.95;;;19.20;99.90;;;;;;4930184;29;20036;-74
2023/10/31 01:41:33;;;;;;;8.38;1.45;;;19.20;99.90;;;;;;4915931;29;20031;-74
2023/10/31 01:43:59;;;;;;;3.80;1.20;;;19.10;99.90;;;;;;4913258;29;20441;-74
2023/10/31 01:46:24;;;;;;;3.80;1.02;;;19.20;99.90;;;;;;4919621;29;20103;-74
2023/10/31 01:48:50;;;;;;;15.50;2.42;;;19.10;99.90;;;;;;4922496;29;20039;-74
2023/10/31 01:51:16;;;;;;;5.30;1.10;;;19.10;99.90;;;;;;4902893;29;20480;-74
2023/10/31 01:53:42;;;;;;;4.90;2.08;;;19.10;99.90;;;;;;4924590;29;20464;-74
2023/10/31 01:56:08;;;;;;;4.07;1.38;;;19.10;99.90;;;;;;4922336;29;20044;-75
2023/10/31 01:58:38;;;;;;;5.22;1.30;;;19.10;99.90;;;;;;4921486;29;20076;-75
2023/10/31 02:01:05;;;;;;;3.75;1.25;;;19.10;99.90;;;;;;4920070;29;20194;-75
2023/10/31 02:03:31;;;;;;;10.15;1.50;;;19.10;99.90;;;;;;4920891;29;20383;-75
2023/10/31 02:05:57;;;;;;;2.58;1.10;;;19.10;99.90;;;;;;4926073;29;20370;-74
2023/10/31 02:08:24;;;;;;;5.13;1.40;;;19.00;99.90;;;;;;4931063;29;20032;-75
2023/10/31 02:10:50;;;;;;;6.32;1.25;;;19.00;99.90;;;;;;4928395;29;20066;-75
2023/10/31 02:13:18;;;;;;;3.35;1.00;;;19.00;99.90;;;;;;4935380;29;20102;-75
2023/10/31 02:15:45;;;;;;;5.53;1.02;;;19.00;99.90;;;;;;4921264;29;20024;-74
2023/10/31 02:18:10;;;;;;;3.92;0.90;;;19.00;99.90;;;;;;4928132;29;20067;-74
2023/10/31 02:20:37;;;;;;;2.58;0.82;;;18.90;99.90;;;;;;4927711;29;20092;-74
2023/10/31 02:23:03;;;;;;;3.55;0.82;;;19.00;99.90;;;;;;4919189;29;20031;-75
2023/10/31 02:25:30;;;;;;;4.03;0.98;;;18.90;99.90;;;;;;4919892;29;20369;-74
2023/10/31 02:27:55;;;;;;;7.22;1.08;;;18.90;99.90;;;;;;4919818;29;20044;-74
2023/10/31 02:30:21;;;;;;;6.88;0.98;;;18.90;99.90;;;;;;4930066;29;22267;-74
2023/10/31 02:32:47;;;;;;;3.17;0.80;;;18.90;99.90;;;;;;4932985;29;20502;-74
2023/10/31 02:35:13;;;;;;;3.17;1.00;;;18.90;99.90;;;;;;4922262;29;20084;-74
2023/10/31 02:37:39;;;;;;;3.60;1.13;;;18.90;99.90;;;;;;4910452;29;20527;-74
2023/10/31 02:40:06;;;;;;;1.65;0.65;;;18.80;99.90;;;;;;4927817;29;20052;-74
2023/10/31 02:42:32;;;;;;;4.20;1.25;;;18.80;99.90;;;;;;4930936;29;20027;-74
2023/10/31 02:44:57;;;;;;;3.80;1.38;;;18.80;99.90;;;;;;4931125;29;20039;-74
2023/10/31 02:47:23;;;;;;;3.03;0.88;;;18.80;99.90;;;;;;4925183;29;20032;-74
2023/10/31 02:49:49;;;;;;;2.10;0.90;;;18.80;99.90;;;;;;4928855;29;20039;-74
2023/10/31 02:52:14;;;;;;;1.85;0.60;;;18.80;99.90;;;;;;4928845;29;20032;-74
2023/10/31 02:54:40;;;;;;;5.75;1.10;;;18.70;99.90;;;;;;4922798;29;20047;-75
2023/10/31 02:57:06;;;;;;;5.72;1.15;;;18.70;99.90;;;;;;4923305;29;20667;-75
2023/10/31 02:59:31;;;;;;;2.55;0.90;;;18.70;99.90;;;;;;4918413;29;20032;-74
2023/10/31 03:01:57;;;;;;;1.80;0.60;;;18.70;99.90;;;;;;4917330;29;20175;-73
2023/10/31 03:04:23;;;;;;;5.70;1.20;;;18.70;99.90;;;;;;4932375;29;20031;-74
2023/10/31 03:06:49;;;;;;;3.42;0.88;;;18.70;99.90;;;;;;4920383;29;20514;-74
2023/10/31 03:09:15;;;;;;;5.25;1.40;;;18.70;99.90;;;;;;4931494;29;20033;-74
2023/10/31 03:11:41;;;;;;;2.20;0.95;;;18.70;99.90;;;;;;4902732;29;20028;-75
2023/10/31 03:14:07;;;;;;;4.35;1.25;;;18.70;99.90;;;;;;4927191;29;20126;-75
2023/10/31 03:16:32;;;;;;;4.10;1.10;;;18.70;99.90;;;;;;4936346;29;20024;-75
2023/10/31 03:18:58;;;;;;;5.55;1.63;;;18.70;99.90;;;;;;4922807;29;20056;-76
2023/10/31 03:21:24;;;;;;;4.07;0.93;;;18.60;99.90;;;;;;4928159;29;20034;-76
2023/10/31 03:23:50;;;;;;;3.17;0.90;;;18.60;99.90;;;;;;4930390;29;20495;-76
2023/10/31 03:26:19;;;;;;;4.22;0.82;;;18.60;99.90;;;;;;4925006;29;20388;-76
2023/10/31 03:28:46;;;;;;;3.30;1.23;;;18.70;99.90;;;;;;4931319;29;20036;-75
2023/10/31 03:31:15;;;;;;;2.08;0.73;;;18.60;99.90;;;;;;4912660;29;20287;-75
2023/10/31 03:33:41;;;;;;;4.47;1.23;;;18.70;99.90;;;;;;4936890;29;20055;-75
2023/10/31 03:36:08;;;;;;;1.73;0.70;;;18.70;99.90;;;;;;4924339;29;20151;-75
2023/10/31 03:38:35;;;;;;;8.13;1.27;;;18.60;99.90;;;;;;4929864;29;20024;-75
2023/10/31 03:41:01;;;;;;;1.95;0.85;;;18.70;99.90;;;;;;4925514;29;20040;-75
2023/10/31 03:43:27;;;;;;;3.47;0.82;;;18.60;99.90;;;;;;4923629;29;20024;-75
2023/10/31 03:45:55;;;;;;;1.90;0.90;;;18.60;99.90;;;;;;4924918;29;20034;-75
2023/10/31 03:48:21;;;;;;;3.50;1.10;;;18.60;99.90;;;;;;4934188;29;20040;-75
2023/10/31 03:50:47;;;;;;;3.67;0.80;;;18.60;99.90;;;;;;4922549;29;20095;-74
2023/10/31 03:53:12;;;;;;;2.95;0.95;;;18.60;99.90;;;;;;4901148;29;20032;-75
2023/10/31 03:55:38;;;;;;;2.97;0.95;;;18.60;99.90;;;;;;4911889;29;20031;-75
2023/10/31 03:58:05;;;;;;;4.07;0.88;;;18.60;99.90;;;;;;4926517;29;20035;-75
2023/10/31 04:00:31;;;;;;;2.30;0.80;;;18.60;99.90;;;;;;4930758;29;20338;-75
2023/10/31 04:02:57;;;;;;;3.35;0.90;;;18.60;99.90;;;;;;4917797;29;20043;-74
2023/10/31 04:05:22;;;;;;;2.72;1.10;;;18.60;99.90;;;;;;4907623;29;20036;-75
2023/10/31 04:07:49;;;;;;;3.03;0.98;;;18.60;99.90;;;;;;4922417;29;20032;-74
2023/10/31 04:10:15;;;;;;;2.25;0.90;;;18.70;99.90;;;;;;4920322;29;20030;-74
2023/10/31 04:12:41;;;;;;;4.13;0.90;;;18.70;99.90;;;;;;4920887;29;20047;-74
2023/10/31 04:15:08;;;;;;;3.35;1.52;;;18.70;99.90;;;;;;4918580;29;20027;-74
2023/10/31 04:17:34;;;;;;;3.05;0.80;;;18.70;99.90;;;;;;4919306;29;20102;-75
2023/10/31 04:20:00;;;;;;;6.32;1.10;;;18.60;99.90;;;;;;4925801;29;20044;-74
2023/10/31 04:22:26;;;;;;;4.65;1.65;;;18.60;99.90;;;;;;4917342;29;20099;-74
2023/10/31 04:24:51;;;;;;;3.97;0.73;;;18.60;99.90;;;;;;4920268;29;20042;-74
2023/10/31 04:27:17;;;;;;;2.30;0.80;;;18.60;99.90;;;;;;4917134;29;20039;-74
2023/10/31 04:29:44;;;;;;;3.60;0.77;;;18.60;99.90;;;;;;4928360;29;20103;-74
2023/10/31 04:32:09;;;;;;;3.83;1.02;;;18.60;99.90;;;;;;4917186;29;20032;-74
2023/10/31 04:34:35;;;;;;;4.15;1.27;;;18.60;99.90;;;;;;4920306;29;20032;-74
2023/10/31 04:37:01;;;;;;;4.53;1.33;;;18.60;99.90;;;;;;4917005;29;20060;-75
2023/10/31 04:39:27;;;;;;;3.00;1.05;;;18.60;99.90;;;;;;4928943;29;20040;-74
2023/10/31 04:41:53;;;;;;;3.40;1.10;;;18.60;99.90;;;;;;4917377;29;20024;-74
2023/10/31 04:44:18;;;;;;;3.78;1.23;;;18.60;99.90;;;;;;4923177;29;20032;-75
2023/10/31 04:46:44;;;;;;;2.70;1.10;;;18.60;99.90;;;;;;4917340;29;20137;-75
2023/10/31 04:49:10;;;;;;;3.03;1.20;;;18.60;99.90;;;;;;4928569;29;20066;-75
2023/10/31 04:51:36;;;;;;;2.58;1.25;;;18.60;99.90;;;;;;4919032;29;20043;-75
2023/10/31 04:54:02;;;;;;;2.80;0.52;;;18.60;99.90;;;;;;4920111;29;20060;-75
2023/10/31 04:56:28;;;;;;;5.53;1.00;;;18.60;99.90;;;;;;4919879;29;20342;-76
2023/10/31 04:58:53;;;;;;;4.00;1.02;;;18.60;99.90;;;;;;4916556;29;20044;-76
2023/10/31 05:01:19;;;;;;;5.88;1.10;;;18.60;99.90;;;;;;4920598;29;20044;-76
2023/10/31 05:03:45;;;;;;;2.60;1.05;;;18.50;99.90;;;;;;4919364;29;20032;-76
2023/10/31 05:06:11;;;;;;;2.55;1.13;;;18.60;99.90;;;;;;4919038;29;20040;-76
2023/10/31 05:08:36;;;;;;;2.70;1.17;;;18.60;99.90;;;;;;4916255;29;20028;-76
2023/10/31 05:11:02;;;;;;;1.17;0.80;;;18.60;99.90;;;;;;4916813;29;20028;-76
2023/10/31 05:13:28;;;;;;;1.73;0.70;;;18.60;99.90;;;;;;4917429;29;20346;-76
2023/10/31 05:15:54;;;;;;;4.65;1.10;;;18.60;99.90;;;;;;4922984;29;20066;-76
2023/10/31 05:18:20;;;;;;;4.13;1.08;;;18.60;99.90;;;;;;4921333;29;20083;-75
2023/10/31 05:20:46;;;;;;;4.35;1.50;;;18.60;99.90;;;;;;4901354;29;20057;-76
2023/10/31 05:23:12;;;;;;;3.10;1.60;;;18.60;99.90;;;;;;4897398;29;20115;-76
2023/10/31 05:25:38;;;;;;;5.20;1.77;;;18.60;99.90;;;;;;4901685;29;20170;-75
2023/10/31 05:28:04;;;;;;;5.10;1.55;;;18.60;99.90;;;;;;4897210;29;20024;-75
2023/10/31 05:30:30;;;;;;;6.55;1.70;;;18.60;99.90;;;;;;4897086;29;20120;-75
2023/10/31 05:32:56;;;;;;;4.68;1.50;;;18.60;99.90;;;;;;4881171;29;20517;-75
2023/10/31 05:35:22;;;;;;;8.55;1.65;;;18.70;99.90;;;;;;4899889;29;20028;-74
2023/10/31 05:37:48;;;;;;;3.92;1.70;;;18.70;99.90;;;;;;4881863;29;20024;-75
2023/10/31 05:40:15;;;;;;;3.28;1.33;;;18.60;99.90;;;;;;4901386;29;20658;-76
2023/10/31 05:42:41;;;;;;;4.35;1.08;;;18.70;99.90;;;;;;4897636;29;20041;-76
2023/10/31 05:45:08;;;;;;;2.42;1.30;;;18.60;99.90;;;;;;4898021;29;20039;-76
2023/10/31 05:47:33;;;;;;;4.22;1.35;;;18.60;99.90;;;;;;4901311;29;20075;-78
2023/10/31 05:49:59;;;;;;;4.88;1.40;;;18.70;99.90;;;;;;4879250;29;20068;-78
2023/10/31 05:52:29;;;;;;;5.45;1.55;;;18.60;99.90;;;;;;4897899;29;20036;-77
2023/10/31 05:54:55;;;;;;;4.10;1.55;;;18.70;99.90;;;;;;4895785;29;20033;-78
2023/10/31 05:57:21;;;;;;;4.60;1.70;;;18.70;99.90;;;;;;4897897;29;20365;-77
2023/10/31 05:59:47;;;;;;;9.32;1.85;;;18.70;99.90;;;;;;4895976;29;20041;-77
2023/10/31 06:02:13;;;;;;;7.28;1.63;;;18.70;99.90;;;;;;4903763;29;20040;-77
2023/10/31 06:04:39;;;;;;;5.63;1.30;;;18.70;99.90;;;;;;4896957;29;20032;-77
2023/10/31 06:07:06;;;;;;;6.35;1.35;;;18.70;99.90;;;;;;4900320;29;20042;-76
2023/10/31 06:09:33;;;;;;;9.55;1.63;;;18.70;99.90;;;;;;4879118;29;20377;-76
2023/10/31 06:12:05;;;;;;;8.07;1.58;;;18.70;99.90;;;;;;4896229;29;20805;-76
2023/10/31 06:14:31;;;;;;;6.55;1.58;;;18.70;99.90;;;;;;4902450;29;20119;-76
2023/10/31 06:16:59;;;;;;;3.58;1.48;;;18.70;99.90;;;;;;4910141;29;20464;-76
2023/10/31 06:19:24;;;;;;;3.17;1.00;;;18.80;99.90;;;;;;4913064;29;20044;-76
2023/10/31 06:21:50;;;;;;;2.65;0.90;;;18.80;99.90;;;;;;4911159;29;20392;-82
2023/10/31 06:24:16;;;;;;;3.00;1.02;;;18.80;99.90;;;;;;4914544;29;20067;-77
2023/10/31 06:26:42;;;;;;;4.22;0.88;;;18.80;99.90;;;;;;4911187;29;20037;-77
2023/10/31 06:29:07;;;;;;;1.90;0.70;;;18.80;99.90;;;;;;4920407;29;20034;-76
2023/10/31 06:31:33;;;;;;;2.92;0.70;;;18.90;99.90;;;;;;4930477;29;20039;-77
2023/10/31 06:33:59;;;;;;;0.73;0.50;;;18.90;99.90;;;;;;4919405;29;20039;-77
2023/10/31 06:36:24;;;;;;;3.80;0.80;;;18.90;99.90;;;;;;4919641;29;20028;-77
2023/10/31 06:38:50;;;;;;;4.78;1.30;;;19.00;99.90;;;;;;4935693;29;20036;-77
2023/10/31 06:41:16;;;;;;;8.30;1.35;;;18.90;99.80;;;;;;4937245;29;20498;-76
2023/10/31 06:43:41;;;;;;;2.85;1.13;;;19.00;99.90;;;;;;4918341;29;20457;-77
2023/10/31 06:46:08;;;;;;;4.03;0.77;;;19.00;99.60;;;;;;4921220;29;20062;-77
2023/10/31 06:48:33;;;;;;;5.07;0.90;;;18.90;99.30;;;;;;4918098;29;20088;-77
2023/10/31 06:50:59;;;;;;;3.28;0.80;;;18.90;99.20;;;;;;4917827;29;20044;-76
2023/10/31 06:53:25;;;;;;;1.65;0.95;;;18.80;99.30;;;;;;4919330;29;20468;-77
2023/10/31 06:55:51;;;;;;;3.03;1.10;;;18.80;99.30;;;;;;4918626;29;20139;-77
2023/10/31 06:58:16;;;;;;;2.38;0.60;;;18.80;99.20;;;;;;4918320;29;20461;-77
2023/10/31 07:00:42;;;;;;;2.33;0.70;;;18.80;99.10;;;;;;4918611;29;20468;-77
2023/10/31 07:03:09;;;;;;;2.47;0.65;;;18.90;99.20;;;;;;4901967;29;20099;-76
2023/10/31 07:05:37;;;;;;;3.53;0.85;;;18.80;99.00;;;;;;4921844;29;20020;-76
2023/10/31 07:08:03;;;;;;;0.70;0.40;;;18.80;98.90;;;;;;4918621;29;20025;-76
2023/10/31 07:10:29;;;;;;;3.38;1.08;;;18.80;98.90;;;;;;4918635;29;20156;-76
2023/10/31 07:12:54;;;;;;;1.65;0.60;;;18.80;98.80;;;;;;4917783;29;20107;-76
2023/10/31 07:15:21;;;;;;;3.08;0.60;;;18.80;99.00;;;;;;4918646;29;20032;-76
2023/10/31 07:17:48;;;;;;;1.08;0.50;;;18.80;99.30;;;;;;4918109;29;20056;-76
2023/10/31 07:20:14;;;;;;;1.67;0.63;;;18.80;99.10;;;;;;4918119;29;20164;-76
2023/10/31 07:22:40;;;;;;;0.98;0.50;;;18.80;99.10;;;;;;4917653;29;20155;-76
2023/10/31 07:25:06;;;;;;;1.45;0.70;;;18.80;99.10;;;;;;4921226;29;20032;-76
2023/10/31 07:27:32;;;;;;;1.15;0.55;;;18.80;98.90;;;;;;4917666;29;20044;-76
2023/10/31 07:29:58;;;;;;;1.65;0.50;;;18.80;98.70;;;;;;4916499;29;20095;-76
2023/10/31 07:32:24;;;;;;;2.60;0.70;;;18.90;98.50;;;;;;4918138;29;20044;-76
2023/10/31 07:34:50;;;;;;;1.77;0.50;;;18.90;98.50;;;;;;4906828;29;20028;-76
2023/10/31 07:37:16;;;;;;;2.25;0.63;;;18.90;98.50;;;;;;4905637;29;20047;-76
2023/10/31 07:39:42;;;;;;;2.90;0.77;;;18.90;98.40;;;;;;4917417;29;20496;-76
2023/10/31 07:42:08;;;;;;;2.25;0.65;;;19.00;98.20;;;;;;4912031;29;20060;-76
2023/10/31 07:44:34;;;;;;;1.73;0.47;;;19.00;98.20;;;;;;4915449;29;20044;-77
2023/10/31 07:46:59;;;;;;;0.70;0.47;;;19.00;97.80;;;;;;4914837;29;20039;-76
2023/10/31 07:49:25;;;;;;;0.88;0.52;;;19.00;97.90;;;;;;4914172;29;20470;-76
2023/10/31 07:51:51;;;;;;;2.33;0.60;;;19.00;97.60;;;;;;4915073;29;20381;-76
2023/10/31 07:54:17;;;;;;;2.13;1.20;;;19.10;97.60;;;;;;4898034;29;20016;-76
2023/10/31 07:56:46;;;;;;;3.00;0.57;;;19.10;97.60;;;;;;4916966;29;20469;-76
2023/10/31 07:59:12;;;;;;;1.95;0.55;;;19.20;97.30;;;;;;4888235;29;20047;-76
2023/10/31 08:01:37;;;;;;;2.30;0.43;;;19.30;97.30;;;;;;4930707;29;20035;-79
2023/10/31 08:04:03;;;;;;;2.40;0.75;;;19.40;96.80;;;;;;4916084;29;20408;-77
2023/10/31 08:06:29;;;;;;;3.13;0.63;;;19.40;96.70;;;;;;4917463;29;20062;-77
2023/10/31 08:08:55;;;;;;;3.38;0.90;;;19.50;96.20;;;;;;4917956;29;20036;-77
2023/10/31 08:11:20;;;;;;;3.70;0.75;;;19.50;95.30;;;;;;4925383;29;20046;-77
2023/10/31 08:13:46;;;;;;;1.42;0.75;;;19.60;95.70;;;;;;4920909;29;20031;-78
2023/10/31 08:16:18;;;;;;;4.90;0.77;;;19.70;95.80;;;;;;4917949;29;20476;-78
2023/10/31 08:18:44;;;;;;;2.05;0.60;;;19.80;94.90;;;;;;4922919;29;20047;-78
2023/10/31 08:21:11;;;;;;;3.22;0.60;;;19.90;95.20;;;;;;4917525;29;20036;-79
2023/10/31 08:23:37;;;;;;;2.47;0.73;;;20.00;94.80;;;;;;4922345;29;20491;-80
2023/10/31 08:26:03;;;;;;;2.70;0.90;;;20.10;94.80;;;;;;4909432;29;20039;-78
2023/10/31 08:28:29;;;;;;;0.57;0.40;;;20.20;92.80;;;;;;4922705;29;20024;-79
2023/10/31 08:30:54;;;;;;;1.45;0.65;;;20.20;93.30;;;;;;4915441;29;20059;-79
2023/10/31 08:33:20;;;;;;;0.98;0.60;;;20.40;93.90;;;;;;4913120;29;20511;-79
2023/10/31 08:35:47;;;;;;;3.92;0.60;;;20.40;93.40;;;;;;4913974;29;20043;-78
2023/10/31 08:38:13;;;;;;;4.07;1.17;;;20.50;93.40;;;;;;4924073;29;20030;-78
2023/10/31 08:40:39;;;;;;;1.00;0.50;;;20.70;93.20;;;;;;4919809;29;20032;-78
2023/10/31 08:43:06;;;;;;;2.38;0.65;;;20.90;92.50;;;;;;4918078;29;20115;-78
2023/10/31 08:45:33;;;;;;;1.20;0.50;;;20.90;92.60;;;;;;4914255;29;20028;-78
2023/10/31 08:47:59;;;;;;;2.33;0.70;;;21.00;91.50;;;;;;4908183;29;20342;-79
2023/10/31 08:50:25;;;;;;;3.88;1.00;;;21.00;91.20;;;;;;4916944;29;20032;-78
2023/10/31 08:52:50;;;;;;;1.65;0.47;;;20.90;90.30;;;;;;4914662;29;20032;-79
2023/10/31 08:55:16;;;;;;;1.95;0.60;;;20.90;91.30;;;;;;4914367;29;20039;-81
2023/10/31 08:57:42;;;;;;;1.58;0.60;;;21.00;90.20;;;;;;4899993;29;20032;-81
2023/10/31 09:00:10;;;;;;;2.95;0.63;;;21.00;90.60;;;;;;4898316;29;20059;-81
2023/10/31 09:02:36;;;;;;;5.65;0.70;;;21.20;90.70;;;;;;4914940;29;20079;-78
2023/10/31 09:05:02;;;;;;;4.43;0.70;;;21.20;86.80;;;;;;4903193;29;21905;-78
2023/10/31 09:07:27;;;;;;;5.80;1.45;;;21.10;88.10;;;;;;4912826;29;20039;-78
2023/10/31 09:09:53;;;;;;;8.60;0.70;;;21.20;87.50;;;;;;4930555;29;20149;-77
2023/10/31 09:12:19;;;;;;;3.05;0.60;;;21.10;87.90;;;;;;4913373;29;20028;-81
2023/10/31 09:14:45;;;;;;;13.48;0.70;;;21.20;89.90;;;;;;4911844;29;20032;-81
2023/10/31 09:17:15;;;;;;;2.83;0.30;;;21.30;89.20;;;;;;4913247;29;20024;-82
2023/10/31 09:19:41;;;;;;;3.13;0.55;;;21.50;87.40;;;;;;4920808;29;20522;-83
2023/10/31 09:22:07;;;;;;;7.93;0.80;;;21.50;87.30;;;;;;4917010;29;20028;-89
2023/10/31 09:24:33;;;;;;;2.05;0.50;;;21.70;85.30;;;;;;4916784;29;20034;-87
2023/10/31 09:26:59;;;;;;;1.27;0.30;;;21.80;87.50;;;;;;4924388;29;20028;-89
2023/10/31 09:29:25;;;;;;;7.15;0.90;;;22.10;85.10;;;;;;4904281;29;20039;-88
2023/10/31 09:31:50;;;;;;;1.23;0.70;;;22.10;84.00;;;;;;4917083;29;20024;-88
2023/10/31 09:34:19;;;;;;;1.63;0.43;;;22.20;85.90;;;;;;4923037;29;20557;-85
2023/10/31 09:36:45;;;;;;;1.65;0.50;;;22.40;84.80;;;;;;4908036;29;20065;-86
2023/10/31 09:39:10;;;;;;;1.60;0.30;;;22.50;83.20;;;;;;4930915;29;20039;-86
2023/10/31 09:41:36;;;;;;;6.60;0.82;;;22.60;83.20;;;;;;4919595;29;20032;-86
2023/10/31 09:44:02;;;;;;;1.40;0.30;;;22.80;82.80;;;;;;4916296;29;20082;-86
2023/10/31 09:46:31;;;;;;;0.30;0.20;;;22.90;81.20;;;;;;4918270;29;20032;-88
2023/10/31 09:48:57;;;;;;;1.25;0.20;;;22.90;80.90;;;;;;4916286;29;20127;-87
2023/10/31 09:51:22;;;;;;;0.57;0.20;;;22.80;80.40;;;;;;4903954;29;20080;-89
2023/10/31 09:53:50;;;;;;;0.82;0.20;;;22.70;79.10;;;;;;4924478;29;20093;-85
2023/10/31 09:56:17;;;;;;;1.60;0.13;;;22.70;80.40;;;;;;4919085;29;20028;-87
2023/10/31 09:58:43;;;;;;;1.88;0.10;;;22.60;79.30;;;;;;4916608;29;20039;-88
2023/10/31 10:01:09;;;;;;;3.35;0.30;;;22.40;77.10;;;;;;4907497;29;20024;-86
2023/10/31 10:03:34;;;;;;;0.55;0.13;;;22.30;77.20;;;;;;4902942;29;20044;-87
2023/10/31 10:06:02;;;;;;;0.85;0.28;;;22.00;77.50;;;;;;4911487;29;20033;-87
2023/10/31 10:08:28;;;;;;;5.50;0.28;;;21.80;77.60;;;;;;4910588;29;20464;-84
2023/10/31 10:10:54;;;;;;;1.00;0.20;;;21.70;79.20;;;;;;4919758;29;20081;-86
2023/10/31 10:13:21;;;;;;;1.50;0.20;;;21.40;78.30;;;;;;4916890;29;20037;-86
2023/10/31 10:15:57;;;;;;;2.08;0.65;;;21.20;80.80;;;;;;4926769;29;20032;-85
2023/10/31 10:18:31;;;;;;;3.28;0.15;;;21.20;81.00;;;;;;4919494;29;20058;-86
2023/10/31 10:21:05;;;;;;;0.30;0.30;;;20.90;78.10;;;;;;4903415;29;20115;-86
2023/10/31 10:23:32;;;;;;;1.17;0.10;;;20.60;80.10;;;;;;4886306;29;20158;-94
2023/10/31 10:25:58;;;;;;;0.32;0.10;;;20.60;80.80;;;;;;4919658;29;20064;-87
2023/10/31 10:28:25;;;;;;;0.70;0.10;;;20.60;80.30;;;;;;4917542;29;20028;-88
2023/10/31 10:30:52;;;;;;;0.20;0.20;;;20.60;80.20;;;;;;4903860;29;20025;-87
2023/10/31 10:33:18;;;;;;;0.40;0.10;;;20.30;80.10;;;;;;4903248;29;20123;-88
2023/10/31 10:35:44;;;;;;;0.40;0.15;;;20.10;80.70;;;;;;4918851;29;20095;-88
2023/10/31 10:38:18;;;;;;;0.50;0.10;;;20.00;81.10;;;;;;4918531;29;20035;-88
2023/10/31 10:40:45;;;;;;;2.55;0.15;;;19.90;81.60;;;;;;4919663;29;20036;-88
2023/10/31 10:43:23;;;;;;;0.55;0.20;;;19.80;81.50;;;;;;4919651;29;20047;-86
2023/10/31 10:45:57;;;;;;;0.20;0.17;;;19.80;81.20;;;;;;4926814;29;20025;-86
2023/10/31 10:48:24;;;;;;;1.88;0.32;;;19.70;81.90;;;;;;4923298;29;20059;-87
2023/10/31 10:51:15;;;;;;;2.05;0.17;;;19.60;82.20;;;;;;4919877;29;20028;-88
2023/10/31 10:54:14;;;;;;;0.85;0.13;;;19.60;82.80;;;;;;4919751;29;20027;-87
2023/10/31 10:56:46;;;;;;;0.60;0.20;;;19.40;82.90;;;;;;4902142;29;20036;-89
2023/10/31 10:59:19;;;;;;;0.30;0.10;;;19.40;82.80;;;;;;4918888;29;20088;-85
2023/10/31 11:01:47;;;;;;;1.08;0.20;;;19.30;82.90;;;;;;4916117;29;20058;-85
2023/10/31 11:04:13;;;;;;;1.67;0.20;;;19.30;82.60;;;;;;4902461;29;20042;-85
2023/10/31 11:06:41;;;;;;;0.55;0.13;;;19.30;83.30;;;;;;4902962;29;20030;-87
2023/10/31 11:09:10;;;;;;;0.70;0.13;;;19.20;83.30;;;;;;4919747;29;20477;-87
2023/10/31 11:11:37;;;;;;;0.38;0.17;;;19.20;83.50;;;;;;4919440;29;20063;-87
2023/10/31 11:14:03;;;;;;;1.17;0.30;;;19.20;82.90;;;;;;4919663;29;20055;-87
2023/10/31 11:16:40;;;;;;;0.40;0.20;;;19.40;83.30;;;;;;4919480;29;20021;-87
2023/10/31 11:19:07;;;;;;;0.30;0.20;;;19.40;82.60;;;;;;4919271;29;20080;-88
2023/10/31 11:21:34;;;;;;;0.10;0.10;;;19.30;82.80;;;;;;4903011;29;20036;-87
2023/10/31 11:24:01;;;;;;;3.22;0.20;;;19.30;83.50;;;;;;4919234;29;20067;-87
2023/10/31 11:26:29;;;;;;;2.05;0.30;;;19.20;83.60;;;;;;4902891;29;20452;-87
2023/10/31 11:29:05;;;;;;;1.90;0.30;;;19.00;84.50;;;;;;4918973;29;20036;-86
2023/10/31 11:31:37;;;;;;;0.77;0.20;;;19.00;85.20;;;;;;4884156;29;20376;-88
2023/10/31 11:34:02;;;;;;;4.03;0.30;;;18.90;85.40;;;;;;4888814;29;20032;-86
2023/10/31 11:36:34;;;;;;;4.15;0.30;;;18.70;86.10;;;;;;4901351;29;20388;-87
2023/10/31 11:39:13;;;;;;;1.13;0.30;;;18.70;87.20;;;;;;4919494;29;20468;-86
2023/10/31 11:41:46;;;;;;;1.73;0.20;;;18.80;87.10;;;;;;4918858;29;20063;-86
2023/10/31 11:44:12;;;;;;;3.17;0.50;;;18.80;86.80;;;;;;4919011;29;20465;-86
2023/10/31 11:46:37;;;;;;;2.15;0.40;;;18.80;86.80;;;;;;4918737;29;20035;-86
2023/10/31 11:49:05;;;;;;;2.70;0.30;;;18.70;87.10;;;;;;4931389;29;20091;-86
2023/10/31 11:51:31;;;;;;;0.40;0.25;;;18.60;87.60;;;;;;4922425;29;20465;-80
2023/10/31 11:53:56;;;;;;;0.82;0.20;;;18.40;87.50;;;;;;4917924;29;20036;-81
2023/10/31 11:56:23;;;;;;;5.78;0.30;;;18.50;88.30;;;;;;4918302;29;20099;-80
2023/10/31 11:58:56;;;;;;;1.52;0.47;;;19.20;88.40;;;;;;4917717;29;20040;-81
2023/10/31 12:01:21;;;;;;;0.32;0.32;;;20.20;84.00;;;;;;4917867;29;20024;-80
2023/10/31 12:03:48;;;;;;;2.85;0.50;;;21.30;83.80;;;;;;4917993;29;20036;-81
2023/10/31 12:06:14;;;;;;;2.35;0.50;;;22.20;78.10;;;;;;4917944;29;20048;-79
2023/10/31 12:08:42;;;;;;;1.02;0.30;;;22.60;77.80;;;;;;4900625;29;20032;-79
2023/10/31 12:11:11;;;;;;;0.38;0.20;;;22.50;76.80;;;;;;4918372;29;20020;-79
2023/10/31 12:13:39;;;;;;;0.60;0.20;;;22.10;77.80;;;;;;4917873;29;20032;-79
2023/10/31 12:16:06;;;;;;;5.40;0.47;;;21.80;78.90;;;;;;4900831;29;20164;-76
2023/10/31 12:18:38;;;;;;;0.35;0.20;;;21.30;79.60;;;;;;4917568;29;20048;-76
2023/10/31 12:21:07;;;;;;;0.30;0.20;;;20.80;81.20;;;;;;4927215;29;20092;-86
2023/10/31 12:23:32;;;;;;;1.33;0.45;;;20.40;82.10;;;;;;4918060;29;20035;-86
2023/10/31 12:25:59;;;;;;;2.33;0.47;;;20.00;83.10;;;;;;4918118;29;20028;-87
2023/10/31 12:28:26;;;;;;;0.55;0.30;;;19.80;83.70;;;;;;4917445;29;20111;-87
2023/10/31 12:30:57;;;;;;;0.63;0.40;;;19.70;84.40;;;;;;4917795;29;20111;-87
2023/10/31 12:33:26;;;;;;;3.92;0.88;;;19.60;85.00;;;;;;4918031;29;20016;-86
2023/10/31 12:36:01;;;;;;;0.50;0.20;;;19.50;84.50;;;;;;4917895;29;20513;-87
2023/10/31 12:38:28;;;;;;;2.28;0.40;;;19.50;85.30;;;;;;4917908;29;20032;-85
2023/10/31 12:40:56;;;;;;;1.60;0.70;;;19.60;84.50;;;;;;4901038;29;20389;-86
2023/10/31 12:43:22;;;;;;;2.35;0.52;;;19.40;84.60;;;;;;4917609;29;20524;-85